createdAt,value
2019-02-08T00:00:58.153Z,7.00
2019-02-08T00:03:29.854Z,6.90
2019-02-08T00:06:01.358Z,7.00
2019-02-08T00:08:33.834Z,6.90
2019-02-08T00:11:05.668Z,6.90
2019-02-08T00:13:37.271Z,7.00
2019-02-08T00:16:08.742Z,6.90
2019-02-08T00:18:40.203Z,6.90
2019-02-08T00:21:11.685Z,6.90
2019-02-08T00:23:43.128Z,6.90
2019-02-08T00:26:14.581Z,6.90
2019-02-08T00:28:46.078Z,6.90
2019-02-08T00:31:17.626Z,6.80
2019-02-08T00:33:49.350Z,6.80
2019-02-08T00:36:20.834Z,6.80
2019-02-08T00:38:52.287Z,6.80
2019-02-08T00:41:23.837Z,6.90
2019-02-08T00:43:55.662Z,6.90
2019-02-08T00:46:27.520Z,6.80
2019-02-08T00:48:59.310Z,6.80
2019-02-08T00:51:30.824Z,6.90
2019-02-08T00:54:02.361Z,6.90
2019-02-08T00:56:33.984Z,6.90
2019-02-08T00:59:05.964Z,7.00
2019-02-08T01:01:37.639Z,6.90
2019-02-08T01:04:09.125Z,6.90
2019-02-08T01:06:40.594Z,6.90
2019-02-08T01:09:12.300Z,7.00
2019-02-08T01:11:43.771Z,7.00
2019-02-08T01:14:15.321Z,7.00
2019-02-08T01:16:46.844Z,7.10
2019-02-08T01:19:18.395Z,7.10
2019-02-08T01:21:49.878Z,7.10
2019-02-08T01:24:22.411Z,7.10
2019-02-08T01:26:53.969Z,7.10
2019-02-08T01:29:25.393Z,7.20
2019-02-08T01:31:56.947Z,7.10
2019-02-08T01:34:28.390Z,7.10
2019-02-08T01:36:59.877Z,7.20
2019-02-08T01:39:31.299Z,7.10
2019-02-08T01:42:02.797Z,7.00
2019-02-08T01:44:34.379Z,7.10
2019-02-08T01:47:05.875Z,7.10
2019-02-08T01:49:56.391Z,7.10
2019-02-08T01:52:27.855Z,7.10
2019-02-08T01:54:59.307Z,7.10
2019-02-08T01:57:30.755Z,7.10
2019-02-08T02:00:05.709Z,7.10
2019-02-08T02:02:37.563Z,7.10
2019-02-08T02:05:09.981Z,7.20
2019-02-08T02:07:41.538Z,7.20
2019-02-08T02:10:35.646Z,7.10
2019-02-08T02:13:08.273Z,7.20
2019-02-08T02:15:41.059Z,7.20
2019-02-08T02:18:13.753Z,7.20
2019-02-08T02:20:45.485Z,7.20
2019-02-08T02:23:17.952Z,7.20
2019-02-08T02:25:49.379Z,7.20
2019-02-08T02:28:20.864Z,7.30
2019-02-08T02:30:52.288Z,7.30
2019-02-08T02:33:23.783Z,7.20
2019-02-08T02:35:55.213Z,7.20
2019-02-08T02:38:26.687Z,7.20
2019-02-08T02:40:58.252Z,7.20
2019-02-08T02:43:29.709Z,7.20
2019-02-08T02:46:01.183Z,7.20
2019-02-08T02:48:35.481Z,7.20
2019-02-08T02:51:06.925Z,7.20
2019-02-08T02:53:38.417Z,7.20
2019-02-08T02:56:10.021Z,7.20
2019-02-08T02:58:41.468Z,7.20
2019-02-08T03:01:12.883Z,7.20
2019-02-08T03:03:44.422Z,7.20
2019-02-08T03:06:15.937Z,7.20
2019-02-08T03:08:47.396Z,7.10
2019-02-08T03:11:18.829Z,7.20
2019-02-08T03:13:50.309Z,7.20
2019-02-08T03:16:21.908Z,7.20
2019-02-08T03:18:53.406Z,7.20
2019-02-08T03:21:24.993Z,7.20
2019-02-08T03:23:56.538Z,7.20
2019-02-08T03:26:28.032Z,7.20
2019-02-08T03:29:00.589Z,7.20
2019-02-08T03:31:32.049Z,7.20
2019-02-08T03:34:03.719Z,7.20
2019-02-08T03:36:35.259Z,7.20
2019-02-08T03:39:09.949Z,7.10
2019-02-08T03:41:41.466Z,7.00
2019-02-08T03:44:12.938Z,7.00
2019-02-08T03:46:44.446Z,7.10
2019-02-08T03:49:15.879Z,7.10
2019-02-08T03:51:47.825Z,7.00
2019-02-08T03:54:21.098Z,7.00
2019-02-08T03:56:52.541Z,7.10
2019-02-08T03:59:24.017Z,7.10
2019-02-08T04:01:55.528Z,7.10
2019-02-08T04:04:26.991Z,7.20
2019-02-08T04:06:58.641Z,7.20
2019-02-08T04:09:30.214Z,7.10
2019-02-08T04:12:01.705Z,7.20
2019-02-08T04:14:33.371Z,7.10
2019-02-08T04:17:04.821Z,7.10
2019-02-08T04:19:36.342Z,7.00
2019-02-08T04:22:07.849Z,6.90
2019-02-08T04:24:39.443Z,6.90
2019-02-08T04:27:10.960Z,6.90
2019-02-08T04:29:42.420Z,7.00
2019-02-08T04:32:13.881Z,7.00
2019-02-08T04:34:45.336Z,7.10
2019-02-08T04:37:16.826Z,7.00
2019-02-08T04:39:48.279Z,7.00
2019-02-08T04:42:19.759Z,7.00
2019-02-08T04:44:51.306Z,6.90
2019-02-08T04:47:22.753Z,7.00
2019-02-08T04:49:54.201Z,6.90
2019-02-08T04:52:25.650Z,7.00
2019-02-08T04:54:57.109Z,7.00
2019-02-08T04:57:28.542Z,6.90
2019-02-08T05:00:00.023Z,7.00
2019-02-08T05:02:31.476Z,7.10
2019-02-08T05:05:02.974Z,7.20
2019-02-08T05:07:34.422Z,7.20
2019-02-08T05:10:08.172Z,7.10
2019-02-08T05:12:39.668Z,7.20
2019-02-08T05:15:12.404Z,7.10
2019-02-08T05:17:46.326Z,7.10
2019-02-08T05:20:20.465Z,7.20
2019-02-08T05:22:51.911Z,7.20
2019-02-08T05:25:23.692Z,7.20
2019-02-08T05:27:57.989Z,7.10
2019-02-08T05:30:32.850Z,7.20
2019-02-08T05:33:06.693Z,7.20
2019-02-08T05:35:38.168Z,7.10
2019-02-08T05:38:09.686Z,7.10
2019-02-08T05:40:41.238Z,7.20
2019-02-08T05:43:12.727Z,7.10
2019-02-08T05:45:44.340Z,7.10
2019-02-08T05:48:16.916Z,7.20
2019-02-08T05:50:48.502Z,7.20
2019-02-08T05:53:20.024Z,7.20
2019-02-08T05:55:51.515Z,7.20
2019-02-08T05:58:23.047Z,7.20
2019-02-08T06:01:00.340Z,7.20
2019-02-08T06:03:31.930Z,7.20
2019-02-08T06:06:03.473Z,7.20
2019-02-08T06:08:34.928Z,7.30
2019-02-08T06:11:06.633Z,7.20
2019-02-08T06:13:38.062Z,7.10
2019-02-08T06:16:09.522Z,7.10
2019-02-08T06:18:41.951Z,7.20
2019-02-08T06:21:13.398Z,7.20
2019-02-08T06:23:45.150Z,7.30
2019-02-08T06:26:16.606Z,7.30
2019-02-08T06:28:48.073Z,7.30
2019-02-08T06:31:19.635Z,7.20
2019-02-08T06:33:51.084Z,7.30
2019-02-08T06:36:22.645Z,7.30
2019-02-08T06:38:55.174Z,7.30
2019-02-08T06:41:29.652Z,7.30
2019-02-08T06:44:01.106Z,7.20
2019-02-08T06:46:32.575Z,7.20
2019-02-08T06:49:04.718Z,7.10
2019-02-08T06:51:36.227Z,7.00
2019-02-08T06:54:07.735Z,7.00
2019-02-08T06:59:54.825Z,7.00
2019-02-08T07:02:48.244Z,7.00
2019-02-08T07:05:37.292Z,7.10
2019-02-08T07:08:17.152Z,7.00
2019-02-08T07:11:08.087Z,7.00
2019-02-08T07:14:01.202Z,7.00
2019-02-08T07:16:51.165Z,7.00
2019-02-08T07:19:44.286Z,7.00
2019-02-08T07:22:37.399Z,7.00
2019-02-08T07:25:47.305Z,7.00
2019-02-08T07:28:37.679Z,7.00
2019-02-08T07:31:27.068Z,7.00
2019-02-08T07:34:15.019Z,6.90
2019-02-08T07:37:01.998Z,6.90
2019-02-08T07:39:46.993Z,7.00
2019-02-08T07:42:47.041Z,7.00
2019-02-08T07:45:33.611Z,7.00
2019-02-08T07:48:21.139Z,7.00
2019-02-08T07:51:05.665Z,6.90
2019-02-08T07:53:55.987Z,7.00
2019-02-08T07:56:58.469Z,7.00
2019-02-08T07:59:53.998Z,7.10
2019-02-08T08:02:50.249Z,7.00
2019-02-08T08:05:35.699Z,7.10
2019-02-08T08:08:20.031Z,7.10
2019-02-08T08:11:23.007Z,7.20
2019-02-08T08:14:32.418Z,7.30
2019-02-08T08:17:12.919Z,7.30
2019-02-08T08:20:09.970Z,7.40
2019-02-08T08:22:59.451Z,7.40
2019-02-08T08:25:59.191Z,7.40
2019-02-08T08:29:01.637Z,7.50
2019-02-08T08:31:47.535Z,7.40
2019-02-08T08:35:01.731Z,7.40
2019-02-08T08:38:16.731Z,7.40
2019-02-08T08:42:01.761Z,7.30
2019-02-08T08:45:28.876Z,7.40
2019-02-08T08:49:01.651Z,7.30
2019-02-08T08:52:43.991Z,7.20
2019-02-08T08:56:21.567Z,7.20
2019-02-08T08:59:51.474Z,7.30
2019-02-08T09:03:10.917Z,7.30
2019-02-08T09:06:20.177Z,7.30
2019-02-08T09:09:21.158Z,7.40
2019-02-08T09:13:00.365Z,7.50
2019-02-08T09:16:26.939Z,7.50
2019-02-08T09:19:42.399Z,7.60
2019-02-08T09:23:16.786Z,7.50
2019-02-08T09:26:45.838Z,7.50
2019-02-08T09:30:25.355Z,7.50
2019-02-08T09:34:04.727Z,7.60
2019-02-08T09:37:30.402Z,7.50
2019-02-08T09:40:50.153Z,7.50
2019-02-08T09:44:13.975Z,7.50
2019-02-08T09:47:44.559Z,7.50
2019-02-08T09:51:15.401Z,7.60
2019-02-08T09:54:44.196Z,7.50
2019-02-08T09:58:30.865Z,7.50
2019-02-08T10:01:55.496Z,7.60
2019-02-08T10:05:11.607Z,7.60
2019-02-08T10:09:05.378Z,7.60
2019-02-08T10:12:51.086Z,7.60
2019-02-08T10:16:35.473Z,7.40
2019-02-08T10:20:17.968Z,7.50
2019-02-08T10:23:38.650Z,7.50
2019-02-08T10:27:22.724Z,7.50
2019-02-08T10:31:00.574Z,7.60
2019-02-08T10:34:49.589Z,7.60
2019-02-08T10:38:20.484Z,7.70
2019-02-08T10:41:45.410Z,7.70
2019-02-08T10:45:40.206Z,7.80
2019-02-08T10:48:55.296Z,7.80
2019-02-08T10:52:24.713Z,7.90
2019-02-08T10:55:42.958Z,8.00
2019-02-08T10:59:05.381Z,8.00
2019-02-08T11:02:24.145Z,8.10
2019-02-08T11:06:02.686Z,7.90
2019-02-08T11:09:39.836Z,7.80
2019-02-08T11:13:05.702Z,7.90
2019-02-08T11:16:35.224Z,7.80
2019-02-08T11:19:16.978Z,7.90
2019-02-08T11:21:51.222Z,7.90
2019-02-08T11:24:27.874Z,7.90
2019-02-08T11:27:02.380Z,7.90
2019-02-08T11:29:33.951Z,7.90
2019-02-08T11:32:07.475Z,7.90
2019-02-08T11:34:45.263Z,7.90
2019-02-08T11:37:16.811Z,7.90
2019-02-08T11:39:48.716Z,8.00
2019-02-08T11:42:20.232Z,8.00
2019-02-08T11:44:51.842Z,8.00
2019-02-08T11:47:23.436Z,8.10
2019-02-08T11:49:54.994Z,8.20
2019-02-08T11:52:26.544Z,8.20
2019-02-08T11:54:58.119Z,8.20
2019-02-08T11:57:30.895Z,8.10
2019-02-08T12:00:03.924Z,8.10
2019-02-08T12:02:40.499Z,8.10
2019-02-08T12:05:10.720Z,8.10
2019-02-08T12:07:42.264Z,8.20
2019-02-08T12:10:14.385Z,8.20
2019-02-08T12:12:47.438Z,8.30
2019-02-08T12:15:20.571Z,8.30
2019-02-08T12:17:52.270Z,8.30
2019-02-08T12:20:25.896Z,8.30
2019-02-08T12:22:59.240Z,8.50
2019-02-08T12:25:30.830Z,8.50
2019-02-08T12:28:03.536Z,8.50
2019-02-08T12:30:38.410Z,8.50
2019-02-08T12:33:10.959Z,8.60
2019-02-08T12:35:42.575Z,8.60
2019-02-08T12:38:14.078Z,8.50
2019-02-08T12:40:46.061Z,8.60
2019-02-08T12:43:17.903Z,8.60
2019-02-08T12:45:49.588Z,8.50
2019-02-08T12:48:21.207Z,8.60
2019-02-08T12:50:52.931Z,8.70
2019-02-08T12:53:24.773Z,8.70
2019-02-08T12:55:56.989Z,8.60
2019-02-08T12:58:28.636Z,8.70
2019-02-08T13:01:02.295Z,8.70
2019-02-08T13:03:34.128Z,8.70
2019-02-08T13:06:06.131Z,8.70
2019-02-08T13:08:37.731Z,8.70
2019-02-08T13:11:09.288Z,8.70
2019-02-08T13:13:40.909Z,8.60
2019-02-08T13:16:12.521Z,8.70
2019-02-08T13:18:43.937Z,8.80
2019-02-08T13:21:15.565Z,8.70
2019-02-08T13:23:47.163Z,8.80
2019-02-08T13:26:18.567Z,8.70
2019-02-08T13:28:50.272Z,8.70
2019-02-08T13:31:27.646Z,8.70
2019-02-08T13:34:02.010Z,8.70
2019-02-08T13:36:33.657Z,8.80
2019-02-08T13:39:08.415Z,8.90
2019-02-08T13:41:41.525Z,8.80
2019-02-08T13:44:16.119Z,8.70
2019-02-08T13:46:47.644Z,8.70
2019-02-08T13:49:19.121Z,8.80
2019-02-08T13:51:50.595Z,8.80
2019-02-08T13:54:22.153Z,8.70
2019-02-08T13:57:00.578Z,8.70
2019-02-08T13:59:30.093Z,8.70
2019-02-08T14:02:02.435Z,8.70
2019-02-08T14:04:34.403Z,8.70
2019-02-08T14:07:05.957Z,8.80
2019-02-08T14:09:37.710Z,8.70
2019-02-08T14:12:09.448Z,8.80
2019-02-08T14:14:41.235Z,8.70
2019-02-08T14:17:13.025Z,8.80
2019-02-08T14:19:44.957Z,8.80
2019-02-08T14:22:16.533Z,8.90
2019-02-08T14:24:51.026Z,8.90
2019-02-08T14:27:23.671Z,9.00
2019-02-08T14:29:57.527Z,9.00
2019-02-08T14:32:29.078Z,9.00
2019-02-08T14:35:00.599Z,9.10
2019-02-08T14:37:33.541Z,9.20
2019-02-08T14:40:06.957Z,9.10
2019-02-08T14:42:40.404Z,9.10
2019-02-08T14:45:12.836Z,9.20
2019-02-08T14:47:47.466Z,9.20
2019-02-08T14:50:22.216Z,9.20
2019-02-08T14:52:54.535Z,9.20
2019-02-08T14:55:26.500Z,9.20
2019-02-08T14:57:58.648Z,9.30
2019-02-08T15:00:30.407Z,9.20
2019-02-08T15:03:02.240Z,9.30
2019-02-08T15:05:33.719Z,9.30
2019-02-08T15:08:08.744Z,9.30
2019-02-08T15:10:46.886Z,9.40
2019-02-08T15:13:18.415Z,9.30
2019-02-08T15:15:49.927Z,9.30
2019-02-08T15:18:21.618Z,9.30
2019-02-08T15:20:53.136Z,9.20
2019-02-08T15:23:25.047Z,9.10
2019-02-08T15:25:56.540Z,9.10
2019-02-08T15:28:28.020Z,9.10
2019-02-08T15:30:59.534Z,9.00
2019-02-08T15:33:31.154Z,9.00
2019-02-08T15:36:02.633Z,8.90
2019-02-08T15:38:34.167Z,8.90
2019-02-08T15:41:05.798Z,8.90
2019-02-08T15:43:37.339Z,8.80
2019-02-08T15:46:09.371Z,8.70
2019-02-08T15:48:40.862Z,8.70
2019-02-08T15:51:12.366Z,8.70
2019-02-08T15:53:43.917Z,8.70
2019-02-08T15:56:18.890Z,8.80
2019-02-08T15:58:52.148Z,8.70
2019-02-08T16:01:26.607Z,8.70
2019-02-08T16:03:58.418Z,8.60
2019-02-08T16:06:30.880Z,8.50
2019-02-08T16:09:02.476Z,8.40
2019-02-08T16:11:35.538Z,8.40
2019-02-08T16:14:07.192Z,8.40
2019-02-08T16:16:38.770Z,8.40
2019-02-08T16:19:11.249Z,8.40
2019-02-08T16:21:43.317Z,8.30
2019-02-08T16:24:16.525Z,8.20
2019-02-08T16:26:48.106Z,8.20
2019-02-08T16:29:19.746Z,8.20
2019-02-08T16:31:51.402Z,8.10
2019-02-08T16:34:23.314Z,8.10
2019-02-08T16:36:54.933Z,8.00
2019-02-08T16:39:26.496Z,8.00
2019-02-08T16:41:59.527Z,8.00
2019-02-08T16:44:31.341Z,8.00
2019-02-08T16:47:03.440Z,8.00
2019-02-08T16:49:35.023Z,7.90
2019-02-08T16:52:06.949Z,7.90
2019-02-08T16:54:38.582Z,7.90
2019-02-08T16:57:10.058Z,7.90
2019-02-08T16:59:41.619Z,7.90
2019-02-08T17:02:13.146Z,7.90
2019-02-08T17:04:47.990Z,7.90
2019-02-08T17:07:19.531Z,7.80
2019-02-08T17:09:51.003Z,7.90
2019-02-08T17:12:22.604Z,7.90
2019-02-08T17:14:54.207Z,7.90
2019-02-08T17:17:26.349Z,8.00
2019-02-08T17:19:58.051Z,8.00
2019-02-08T17:22:29.784Z,8.00
2019-02-08T17:25:01.262Z,8.10
2019-02-08T17:27:32.891Z,8.10
2019-02-08T17:30:11.051Z,8.10
2019-02-08T17:32:42.604Z,8.10
2019-02-08T17:35:17.920Z,8.10
2019-02-08T17:37:49.533Z,8.10
2019-02-08T17:40:24.092Z,8.10
2019-02-08T17:42:55.592Z,8.20
2019-02-08T17:45:27.300Z,8.20
2019-02-08T17:48:03.285Z,8.30
2019-02-08T17:50:34.851Z,8.30
2019-02-08T17:53:06.314Z,8.30
2019-02-08T17:55:37.761Z,8.30
2019-02-08T17:58:09.236Z,8.30
2019-02-08T18:00:48.632Z,8.30
2019-02-08T18:03:22.059Z,8.40
2019-02-08T18:05:53.563Z,8.40
2019-02-08T18:08:25.009Z,8.40
2019-02-08T18:10:56.649Z,8.40
2019-02-08T18:13:28.150Z,8.50
2019-02-08T18:15:59.751Z,8.50
2019-02-08T18:18:31.224Z,8.50
2019-02-08T18:21:09.860Z,8.50
2019-02-08T18:23:41.403Z,8.50
2019-02-08T18:26:14.988Z,8.50
2019-02-08T18:28:46.891Z,8.60
2019-02-08T18:31:18.601Z,8.50
2019-02-08T18:33:50.277Z,8.50
2019-02-08T18:36:23.088Z,8.60
2019-02-08T18:38:54.684Z,8.60
2019-02-08T18:41:26.482Z,8.60
2019-02-08T18:44:00.052Z,8.60
2019-02-08T18:46:35.629Z,8.60
2019-02-08T18:49:07.200Z,8.60
2019-02-08T18:51:40.181Z,8.50
2019-02-08T18:54:13.348Z,8.60
2019-02-08T18:56:44.907Z,8.60
2019-02-08T18:59:16.650Z,8.60
2019-02-08T19:01:49.732Z,8.60
2019-02-08T19:04:21.275Z,8.60
2019-02-08T19:06:53.485Z,8.60
2019-02-08T19:09:26.299Z,8.60
2019-02-08T19:11:57.871Z,8.60
2019-02-08T19:14:32.213Z,8.60
2019-02-08T19:17:04.297Z,8.70
2019-02-08T19:19:35.931Z,8.70
2019-02-08T19:22:07.513Z,8.70
2019-02-08T19:24:39.139Z,8.70
2019-02-08T19:27:12.155Z,8.70
2019-02-08T19:29:47.936Z,8.70
2019-02-08T19:32:19.400Z,8.70
2019-02-08T19:34:53.394Z,8.70
2019-02-08T19:37:25.085Z,8.70
2019-02-08T19:39:56.945Z,8.70
2019-02-08T19:42:28.487Z,8.70
2019-02-08T19:45:00.263Z,8.70
2019-02-08T19:47:31.891Z,8.70
2019-02-08T19:50:03.754Z,8.70
2019-02-08T19:52:35.408Z,8.70
2019-02-08T19:55:10.576Z,8.80
2019-02-08T19:57:42.394Z,8.80
2019-02-08T20:00:17.625Z,8.80
2019-02-08T20:02:49.351Z,8.70
2019-02-08T20:05:23.337Z,8.70
2019-02-08T20:07:57.082Z,8.70
2019-02-08T20:10:32.105Z,8.70
2019-02-08T20:13:03.727Z,8.80
2019-02-08T20:15:35.469Z,8.80
2019-02-08T20:18:08.376Z,8.80
2019-02-08T20:20:40.416Z,8.80
2019-02-08T20:23:17.172Z,8.80
2019-02-08T20:25:48.814Z,8.70
2019-02-08T20:28:21.971Z,8.80
2019-02-08T20:30:53.490Z,8.80
2019-02-08T20:33:25.003Z,8.70
2019-02-08T20:35:56.471Z,8.80
2019-02-08T20:38:27.969Z,8.80
2019-02-08T20:40:59.550Z,8.80
2019-02-08T20:43:31.060Z,8.80
2019-02-08T20:46:02.611Z,8.70
2019-02-08T20:48:34.227Z,8.80
2019-02-08T20:51:05.770Z,8.80
2019-02-08T20:53:37.369Z,8.80
2019-02-08T20:56:09.331Z,8.80
2019-02-08T20:58:50.098Z,8.80
2019-02-08T21:01:19.491Z,8.80
2019-02-08T21:03:51.049Z,8.90
2019-02-08T21:06:22.504Z,8.80
2019-02-08T21:08:54.825Z,8.90
2019-02-08T21:11:26.343Z,8.90
2019-02-08T21:13:59.556Z,8.90
2019-02-08T21:16:31.055Z,8.90
2019-02-08T21:19:02.571Z,8.90
2019-02-08T21:21:34.099Z,8.90
2019-02-08T21:24:07.074Z,8.90
2019-02-08T21:26:40.151Z,8.90
2019-02-08T21:29:11.516Z,8.90
2019-02-08T21:31:43.007Z,8.90
2019-02-08T21:34:15.548Z,8.90
2019-02-08T21:36:47.012Z,8.90
2019-02-08T21:39:18.543Z,9.00
2019-02-08T21:41:50.078Z,8.90
2019-02-08T21:44:21.592Z,9.00
2019-02-08T21:46:53.132Z,9.00
2019-02-08T21:49:24.715Z,9.00
2019-02-08T21:51:58.387Z,9.00
2019-02-08T21:54:29.944Z,9.00
2019-02-08T21:57:01.396Z,9.10
2019-02-08T21:59:34.131Z,9.00
2019-02-08T22:02:06.066Z,9.00
2019-02-08T22:04:37.520Z,9.00
2019-02-08T22:07:10.564Z,9.10
2019-02-08T22:09:42.034Z,9.10
2019-02-08T22:12:13.549Z,9.10
2019-02-08T22:14:45.075Z,9.10
2019-02-08T22:17:16.567Z,9.10
2019-02-08T22:19:48.024Z,9.10
2019-02-08T22:22:21.966Z,9.20
2019-02-08T22:24:53.855Z,9.20
2019-02-08T22:27:29.463Z,9.20
2019-02-08T22:30:01.053Z,9.20
2019-02-08T22:32:32.666Z,9.20
2019-02-08T22:35:04.774Z,9.20
2019-02-08T22:37:36.252Z,9.20
2019-02-08T22:40:11.681Z,9.20
2019-02-08T22:42:43.268Z,9.20
2019-02-08T22:45:30.288Z,9.20
2019-02-08T22:48:01.984Z,9.20
2019-02-08T22:50:33.614Z,9.20
2019-02-08T22:53:09.214Z,9.20
2019-02-08T22:55:40.784Z,9.20
2019-02-08T22:58:15.470Z,9.20
2019-02-08T23:01:27.876Z,9.20
2019-02-08T23:04:05.472Z,9.20
2019-02-08T23:06:44.517Z,9.20
2019-02-08T23:09:24.576Z,9.30
2019-02-08T23:11:56.131Z,9.20
2019-02-08T23:14:32.913Z,9.20
2019-02-08T23:17:04.940Z,9.20
2019-02-08T23:19:48.140Z,9.20
2019-02-08T23:22:38.911Z,9.30
2019-02-08T23:25:10.611Z,9.20
2019-02-08T23:27:42.218Z,9.30
2019-02-08T23:30:14.468Z,9.30
2019-02-08T23:32:46.708Z,9.30
2019-02-08T23:35:18.434Z,9.20
2019-02-08T23:37:49.943Z,9.20
2019-02-08T23:40:21.544Z,9.30
2019-02-08T23:42:53.175Z,9.30
2019-02-08T23:45:24.887Z,9.30
2019-02-08T23:47:56.469Z,9.30
2019-02-08T23:50:27.926Z,9.30
2019-02-08T23:52:59.532Z,9.30
2019-02-08T23:55:32.481Z,9.30
2019-02-08T23:58:04.108Z,9.30
